sensor_id;sensor_type;location;lat;lon;timestamp;pressure;altitude;pressure_sealevel;temperature;humidity
38038;BME280;23843;51.320;12.340;2022-09-12T04:30:15;100546.13;;;14.16;90.54
38038;BME280;23843;51.320;12.340;2022-09-12T04:32:41;100543.28;;;14.19;89.74
38038;BME280;23843;51.320;12.340;2022-09-12T04:35:06;100542.94;;;14.24;89.38
38038;BME280;23843;51.320;12.340;2022-09-12T04:37:32;100542.09;;;14.23;89.79
38038;BME280;23843;51.320;12.340;2022-09-12T04:39:57;100547.13;;;14.28;89.36
38038;BME280;23843;51.320;12.340;2022-09-12T04:42:23;100539.81;;;14.31;89.39
38038;BME280;23843;51.320;12.340;2022-09-12T04:44:48;100538.53;;;14.37;89.02
38038;BME280;23843;51.320;12.340;2022-09-12T04:47:15;100532.88;;;14.42;88.96
38038;BME280;23843;51.320;12.340;2022-09-12T04:49:40;100536.63;;;14.39;88.93
38038;BME280;23843;51.320;12.340;2022-09-12T04:52:06;100542.69;;;14.41;88.55
38038;BME280;23843;51.320;12.340;2022-09-12T04:54:31;100537.75;;;14.35;89.27
38038;BME280;23843;51.320;12.340;2022-09-12T04:56:56;100543.63;;;14.40;89.54
38038;BME280;23843;51.320;12.340;2022-09-12T04:59:22;100538.97;;;14.44;89.06
38038;BME280;23843;51.320;12.340;2022-09-12T05:01:48;100539.59;;;14.47;88.80
38038;BME280;23843;51.320;12.340;2022-09-12T05:04:14;100537.69;;;14.49;89.05
38038;BME280;23843;51.320;12.340;2022-09-12T05:06:41;100542.81;;;14.52;88.93
38038;BME280;23843;51.320;12.340;2022-09-12T05:09:09;100540.72;;;14.58;88.53
38038;BME280;23843;51.320;12.340;2022-09-12T05:11:37;100550.75;;;14.54;89.40
38038;BME280;23843;51.320;12.340;2022-09-12T05:14:03;100545.78;;;14.48;89.94
38038;BME280;23843;51.320;12.340;2022-09-12T05:16:28;100547.59;;;14.47;90.23
38038;BME280;23843;51.320;12.340;2022-09-12T05:18:56;100555.03;;;14.57;89.47
38038;BME280;23843;51.320;12.340;2022-09-12T05:21:23;100559.91;;;14.63;89.54
38038;BME280;23843;51.320;12.340;2022-09-12T05:23:50;100553.34;;;14.68;89.38
38038;BME280;23843;51.320;12.340;2022-09-12T05:26:16;100552.06;;;14.74;89.05
38038;BME280;23843;51.320;12.340;2022-09-12T05:28:41;100553.88;;;14.73;88.98
38038;BME280;23843;51.320;12.340;2022-09-12T05:31:10;100551.09;;;14.75;89.33
38038;BME280;23843;51.320;12.340;2022-09-12T05:33:37;100556.56;;;14.86;89.62
38038;BME280;23843;51.320;12.340;2022-09-12T05:36:04;100562.19;;;14.94;89.24
38038;BME280;23843;51.320;12.340;2022-09-12T05:38:33;100557.84;;;14.93;88.78
38038;BME280;23843;51.320;12.340;2022-09-12T05:41:02;100571.50;;;15.02;89.59
38038;BME280;23843;51.320;12.340;2022-09-12T05:43:28;100564.75;;;15.09;89.72
38038;BME280;23843;51.320;12.340;2022-09-12T05:45:59;100569.06;;;15.24;89.45
38038;BME280;23843;51.320;12.340;2022-09-12T05:48:24;100564.31;;;15.40;88.99
38038;BME280;23843;51.320;12.340;2022-09-12T05:50:50;100573.25;;;15.65;88.56
38038;BME280;23843;51.320;12.340;2022-09-12T05:53:15;100583.16;;;15.89;87.83
38038;BME280;23843;51.320;12.340;2022-09-12T05:55:42;100570.59;;;16.26;87.30
38038;BME280;23843;51.320;12.340;2022-09-12T05:58:07;100573.56;;;16.94;87.33
38038;BME280;23843;51.320;12.340;2022-09-12T06:00:32;100578.13;;;17.61;83.45
38038;BME280;23843;51.320;12.340;2022-09-12T06:02:58;100584.69;;;17.90;81.08
38038;BME280;23843;51.320;12.340;2022-09-12T06:05:23;100578.59;;;18.32;79.47
38038;BME280;23843;51.320;12.340;2022-09-12T06:07:49;100579.69;;;18.61;78.30
38038;BME280;23843;51.320;12.340;2022-09-12T06:10:14;100577.69;;;19.17;77.34
38038;BME280;23843;51.320;12.340;2022-09-12T06:12:41;100583.25;;;19.56;74.93
38038;BME280;23843;51.320;12.340;2022-09-12T06:15:07;100575.50;;;20.22;73.09
38038;BME280;23843;51.320;12.340;2022-09-12T06:17:33;100576.38;;;20.42;71.03
38038;BME280;23843;51.320;12.340;2022-09-12T06:19:58;100579.63;;;20.17;70.25
38038;BME280;23843;51.320;12.340;2022-09-12T06:22:23;100573.44;;;19.76;71.01
38038;BME280;23843;51.320;12.340;2022-09-12T06:24:49;100582.75;;;19.72;71.67
38038;BME280;23843;51.320;12.340;2022-09-12T06:27:14;100579.78;;;19.75;71.12
38038;BME280;23843;51.320;12.340;2022-09-12T06:29:41;100575.88;;;19.88;69.96
38038;BME280;23843;51.320;12.340;2022-09-12T06:32:06;100576.31;;;19.94;71.08
38038;BME280;23843;51.320;12.340;2022-09-12T06:34:31;100578.44;;;19.90;70.54
38038;BME280;23843;51.320;12.340;2022-09-12T06:36:57;100571.50;;;19.87;70.31
38038;BME280;23843;51.320;12.340;2022-09-12T06:39:22;100575.22;;;20.16;69.93
38038;BME280;23843;51.320;12.340;2022-09-12T06:41:48;100588.53;;;20.27;68.32
38038;BME280;23843;51.320;12.340;2022-09-12T06:44:16;100576.66;;;20.39;69.49
38038;BME280;23843;51.320;12.340;2022-09-12T06:46:43;100570.47;;;20.68;68.37
38038;BME280;23843;51.320;12.340;2022-09-12T06:49:08;100570.16;;;20.71;68.18
38038;BME280;23843;51.320;12.340;2022-09-12T06:51:34;100575.84;;;20.68;66.88
38038;BME280;23843;51.320;12.340;2022-09-12T06:53:59;100578.22;;;20.81;67.27
38038;BME280;23843;51.320;12.340;2022-09-12T06:56:26;100575.13;;;20.76;67.61
38038;BME280;23843;51.320;12.340;2022-09-12T06:58:52;100593.22;;;20.54;67.31
38038;BME280;23843;51.320;12.340;2022-09-12T07:01:19;100589.09;;;20.40;68.26
38038;BME280;23843;51.320;12.340;2022-09-12T07:03:49;100584.03;;;20.37;68.87
38038;BME280;23843;51.320;12.340;2022-09-12T07:06:17;100581.75;;;20.42;68.96
38038;BME280;23843;51.320;12.340;2022-09-12T07:08:43;100587.84;;;20.35;68.97
38038;BME280;23843;51.320;12.340;2022-09-12T07:11:10;100584.84;;;20.28;68.75
38038;BME280;23843;51.320;12.340;2022-09-12T07:13:35;100586.00;;;20.25;69.97
38038;BME280;23843;51.320;12.340;2022-09-12T07:16:01;100580.03;;;20.12;69.92
38038;BME280;23843;51.320;12.340;2022-09-12T07:18:27;100587.38;;;20.00;69.97
38038;BME280;23843;51.320;12.340;2022-09-12T07:20:54;100584.69;;;20.00;70.31
38038;BME280;23843;51.320;12.340;2022-09-12T07:23:20;100580.44;;;20.07;69.95
38038;BME280;23843;51.320;12.340;2022-09-12T07:25:51;100580.72;;;20.14;70.12
38038;BME280;23843;51.320;12.340;2022-09-12T07:28:16;100588.38;;;20.19;70.16
38038;BME280;23843;51.320;12.340;2022-09-12T07:30:42;100582.47;;;20.44;70.64
38038;BME280;23843;51.320;12.340;2022-09-12T07:33:07;100580.06;;;20.90;70.37
38038;BME280;23843;51.320;12.340;2022-09-12T07:35:33;100578.38;;;21.26;68.93
38038;BME280;23843;51.320;12.340;2022-09-12T07:37:59;100578.78;;;21.51;67.07
38038;BME280;23843;51.320;12.340;2022-09-12T07:40:25;100573.09;;;21.82;66.45
38038;BME280;23843;51.320;12.340;2022-09-12T07:42:50;100575.63;;;21.83;64.50
38038;BME280;23843;51.320;12.340;2022-09-12T07:45:15;100570.56;;;22.61;64.44
38038;BME280;23843;51.320;12.340;2022-09-12T07:47:41;100573.44;;;23.30;60.82
38038;BME280;23843;51.320;12.340;2022-09-12T07:50:07;100571.03;;;23.87;60.86
38038;BME280;23843;51.320;12.340;2022-09-12T07:52:32;100567.25;;;24.55;56.54
38038;BME280;23843;51.320;12.340;2022-09-12T07:54:59;100568.63;;;24.76;58.08
38038;BME280;23843;51.320;12.340;2022-09-12T07:57:24;100574.13;;;25.40;55.84
38038;BME280;23843;51.320;12.340;2022-09-12T07:59:50;100561.34;;;26.27;53.17
38038;BME280;23843;51.320;12.340;2022-09-12T08:02:15;100561.66;;;27.46;50.24
38038;BME280;23843;51.320;12.340;2022-09-12T08:04:40;100571.41;;;28.65;47.09
38038;BME280;23843;51.320;12.340;2022-09-12T08:07:06;100562.81;;;29.94;44.16
38038;BME280;23843;51.320;12.340;2022-09-12T08:09:31;100568.41;;;31.40;39.77
38038;BME280;23843;51.320;12.340;2022-09-12T08:11:58;100572.44;;;32.34;38.03
38038;BME280;23843;51.320;12.340;2022-09-12T08:14:24;100571.47;;;33.29;36.30
38038;BME280;23843;51.320;12.340;2022-09-12T08:16:49;100566.03;;;33.96;35.13
38038;BME280;23843;51.320;12.340;2022-09-12T08:19:14;100571.66;;;34.20;34.65
38038;BME280;23843;51.320;12.340;2022-09-12T08:21:40;100565.09;;;34.74;34.00
38038;BME280;23843;51.320;12.340;2022-09-12T08:24:05;100566.59;;;34.47;28.86
38038;BME280;23843;51.320;12.340;2022-09-12T08:26:32;100567.13;;;34.67;33.80
38038;BME280;23843;51.320;12.340;2022-09-12T08:28:59;100559.75;;;35.27;31.12
38038;BME280;23843;51.320;12.340;2022-09-12T08:31:26;100567.28;;;35.08;25.99
38038;BME280;23843;51.320;12.340;2022-09-12T08:33:53;100562.38;;;34.98;27.95
38038;BME280;23843;51.320;12.340;2022-09-12T08:36:20;100566.91;;;35.04;27.15
38038;BME280;23843;51.320;12.340;2022-09-12T08:38:47;100560.91;;;35.43;29.31
38038;BME280;23843;51.320;12.340;2022-09-12T08:41:20;100559.00;;;34.84;28.92
38038;BME280;23843;51.320;12.340;2022-09-12T08:44:00;100570.72;;;35.62;32.98
38038;BME280;23843;51.320;12.340;2022-09-12T08:46:33;100564.47;;;36.53;27.21
38038;BME280;23843;51.320;12.340;2022-09-12T08:49:01;100564.16;;;36.83;25.34
38038;BME280;23843;51.320;12.340;2022-09-12T08:51:30;100558.00;;;36.01;24.36
38038;BME280;23843;51.320;12.340;2022-09-12T08:53:58;100564.03;;;35.34;26.18
38038;BME280;23843;51.320;12.340;2022-09-12T08:56:26;100559.13;;;35.36;25.78
38038;BME280;23843;51.320;12.340;2022-09-12T08:58:53;100560.78;;;35.61;26.93
38038;BME280;23843;51.320;12.340;2022-09-12T09:01:26;100563.13;;;37.23;27.66
38038;BME280;23843;51.320;12.340;2022-09-12T09:04:03;100560.81;;;37.15;25.34
38038;BME280;23843;51.320;12.340;2022-09-12T09:06:50;100555.28;;;36.81;27.66
38038;BME280;23843;51.320;12.340;2022-09-12T09:09:23;100555.63;;;35.65;25.22
38038;BME280;23843;51.320;12.340;2022-09-12T09:12:00;100564.19;;;32.91;29.38
38038;BME280;23843;51.320;12.340;2022-09-12T09:14:44;100559.84;;;31.75;32.61
38038;BME280;23843;51.320;12.340;2022-09-12T09:17:22;100550.97;;;30.48;32.78
38038;BME280;23843;51.320;12.340;2022-09-12T09:19:53;100546.88;;;29.56;37.17
38038;BME280;23843;51.320;12.340;2022-09-12T09:22:28;100548.81;;;29.27;38.39
38038;BME280;23843;51.320;12.340;2022-09-12T09:25:00;100544.56;;;28.90;37.47
38038;BME280;23843;51.320;12.340;2022-09-12T09:27:29;100554.41;;;28.41;37.78
38038;BME280;23843;51.320;12.340;2022-09-12T09:29:56;100549.72;;;28.35;38.38
38038;BME280;23843;51.320;12.340;2022-09-12T09:32:25;100549.34;;;27.36;38.76
38038;BME280;23843;51.320;12.340;2022-09-12T09:34:51;100553.63;;;27.15;39.22
38038;BME280;23843;51.320;12.340;2022-09-12T09:37:18;100551.31;;;26.51;40.44
38038;BME280;23843;51.320;12.340;2022-09-12T09:39:51;100545.22;;;26.26;40.49
38038;BME280;23843;51.320;12.340;2022-09-12T09:42:28;100541.88;;;26.16;41.68
38038;BME280;23843;51.320;12.340;2022-09-12T09:44:59;100551.09;;;26.07;41.75
38038;BME280;23843;51.320;12.340;2022-09-12T09:47:28;100540.69;;;26.18;41.79
38038;BME280;23843;51.320;12.340;2022-09-12T09:49:53;100540.59;;;26.12;41.39
38038;BME280;23843;51.320;12.340;2022-09-12T09:52:23;100537.47;;;25.92;41.69
38038;BME280;23843;51.320;12.340;2022-09-12T09:54:52;100527.47;;;25.84;41.79
38038;BME280;23843;51.320;12.340;2022-09-12T09:57:42;100533.50;;;25.15;42.71
38038;BME280;23843;51.320;12.340;2022-09-12T10:00:35;100523.09;;;24.63;43.86
38038;BME280;23843;51.320;12.340;2022-09-12T10:06:20;100525.09;;;24.86;43.56
38038;BME280;23843;51.320;12.340;2022-09-12T10:08:47;100525.13;;;24.61;43.49
38038;BME280;23843;51.320;12.340;2022-09-12T10:11:18;100518.66;;;24.38;43.75
38038;BME280;23843;51.320;12.340;2022-09-12T10:13:52;100522.75;;;24.50;42.56
38038;BME280;23843;51.320;12.340;2022-09-12T10:16:19;100523.41;;;24.19;43.62
38038;BME280;23843;51.320;12.340;2022-09-12T10:18:45;100531.66;;;24.09;43.23
38038;BME280;23843;51.320;12.340;2022-09-12T10:21:19;100521.03;;;24.24;43.47
38038;BME280;23843;51.320;12.340;2022-09-12T10:23:46;100517.13;;;24.27;43.10
38038;BME280;23843;51.320;12.340;2022-09-12T10:26:15;100523.38;;;24.11;42.85
38038;BME280;23843;51.320;12.340;2022-09-12T10:28:47;100527.06;;;23.93;42.88
38038;BME280;23843;51.320;12.340;2022-09-12T10:31:15;100532.28;;;23.87;41.61
38038;BME280;23843;51.320;12.340;2022-09-12T10:33:48;100524.53;;;23.49;42.36
38038;BME280;23843;51.320;12.340;2022-09-12T10:36:16;100525.63;;;23.31;43.83
38038;BME280;23843;51.320;12.340;2022-09-12T10:38:48;100526.38;;;23.15;45.60
38038;BME280;23843;51.320;12.340;2022-09-12T10:41:14;100518.69;;;23.02;46.23
38038;BME280;23843;51.320;12.340;2022-09-12T10:43:39;100515.22;;;22.92;46.68
38038;BME280;23843;51.320;12.340;2022-09-12T10:46:22;100514.06;;;22.94;46.41
38038;BME280;23843;51.320;12.340;2022-09-12T10:49:12;100502.53;;;22.84;46.60
38038;BME280;23843;51.320;12.340;2022-09-12T10:51:39;100499.84;;;22.92;47.03
38038;BME280;23843;51.320;12.340;2022-09-12T10:54:07;100500.66;;;22.84;46.84
38038;BME280;23843;51.320;12.340;2022-09-12T10:56:38;100503.47;;;22.75;46.57
38038;BME280;23843;51.320;12.340;2022-09-12T10:59:19;100496.28;;;22.83;46.49
38038;BME280;23843;51.320;12.340;2022-09-12T11:01:49;100495.06;;;22.78;46.46
38038;BME280;23843;51.320;12.340;2022-09-12T11:04:25;100494.75;;;22.81;46.91
38038;BME280;23843;51.320;12.340;2022-09-12T11:07:00;100502.09;;;22.97;46.52
38038;BME280;23843;51.320;12.340;2022-09-12T11:09:35;100501.88;;;22.64;45.88
38038;BME280;23843;51.320;12.340;2022-09-12T11:12:08;100497.59;;;22.35;46.35
38038;BME280;23843;51.320;12.340;2022-09-12T11:14:45;100486.97;;;22.34;47.11
38038;BME280;23843;51.320;12.340;2022-09-12T11:17:23;100484.28;;;22.34;47.58
38038;BME280;23843;51.320;12.340;2022-09-12T11:20:02;100487.78;;;22.52;46.03
38038;BME280;23843;51.320;12.340;2022-09-12T11:22:51;100483.13;;;22.62;46.18
38038;BME280;23843;51.320;12.340;2022-09-12T11:25:27;100487.28;;;22.49;46.22
38038;BME280;23843;51.320;12.340;2022-09-12T11:28:27;100478.47;;;22.29;45.60
38038;BME280;23843;51.320;12.340;2022-09-12T11:31:11;100484.66;;;22.21;46.28
38038;BME280;23843;51.320;12.340;2022-09-12T11:33:43;100476.25;;;22.42;46.87
38038;BME280;23843;51.320;12.340;2022-09-12T11:36:19;100465.56;;;22.58;47.11
38038;BME280;23843;51.320;12.340;2022-09-12T11:38:58;100475.81;;;22.55;47.27
38038;BME280;23843;51.320;12.340;2022-09-12T11:41:29;100470.75;;;22.52;46.59
38038;BME280;23843;51.320;12.340;2022-09-12T11:44:00;100466.22;;;22.60;46.07
38038;BME280;23843;51.320;12.340;2022-09-12T11:46:31;100472.22;;;22.72;45.07
38038;BME280;23843;51.320;12.340;2022-09-12T11:49:00;100468.00;;;22.70;44.77
38038;BME280;23843;51.320;12.340;2022-09-12T11:51:32;100465.25;;;22.61;45.86
38038;BME280;23843;51.320;12.340;2022-09-12T11:54:11;100470.19;;;22.66;46.09
38038;BME280;23843;51.320;12.340;2022-09-12T11:56:41;100464.81;;;22.74;46.23
38038;BME280;23843;51.320;12.340;2022-09-12T11:59:12;100465.47;;;22.68;45.41
38038;BME280;23843;51.320;12.340;2022-09-12T12:01:41;100460.91;;;22.69;45.88
38038;BME280;23843;51.320;12.340;2022-09-12T12:04:11;100462.78;;;22.50;45.68
38038;BME280;23843;51.320;12.340;2022-09-12T12:06:45;100458.78;;;22.54;46.77
38038;BME280;23843;51.320;12.340;2022-09-12T12:09:12;100454.13;;;22.64;46.47
38038;BME280;23843;51.320;12.340;2022-09-12T12:11:42;100459.31;;;22.84;44.92
38038;BME280;23843;51.320;12.340;2022-09-12T12:14:13;100459.63;;;22.81;43.00
38038;BME280;23843;51.320;12.340;2022-09-12T12:16:40;100455.91;;;22.82;43.56
38038;BME280;23843;51.320;12.340;2022-09-12T12:19:25;100454.97;;;22.65;41.76
38038;BME280;23843;51.320;12.340;2022-09-12T12:22:05;100452.84;;;22.25;43.11
38038;BME280;23843;51.320;12.340;2022-09-12T12:24:32;100455.25;;;22.36;44.20
38038;BME280;23843;51.320;12.340;2022-09-12T12:27:00;100449.66;;;22.55;44.07
38038;BME280;23843;51.320;12.340;2022-09-12T12:29:45;100452.06;;;22.58;43.73
38038;BME280;23843;51.320;12.340;2022-09-12T12:32:22;100447.22;;;22.70;43.85
38038;BME280;23843;51.320;12.340;2022-09-12T12:34:47;100440.56;;;22.82;43.71
38038;BME280;23843;51.320;12.340;2022-09-12T12:37:52;100436.38;;;22.88;44.06
38038;BME280;23843;51.320;12.340;2022-09-12T12:40:25;100442.84;;;22.95;42.92
38038;BME280;23843;51.320;12.340;2022-09-12T12:46:09;100430.97;;;23.14;41.57
38038;BME280;23843;51.320;12.340;2022-09-12T12:48:49;100434.09;;;23.01;42.64
38038;BME280;23843;51.320;12.340;2022-09-12T12:57:25;100428.47;;;22.95;43.32
38038;BME280;23843;51.320;12.340;2022-09-12T12:59:55;100421.59;;;23.00;41.65
38038;BME280;23843;51.320;12.340;2022-09-12T13:02:26;100425.91;;;22.85;42.84
38038;BME280;23843;51.320;12.340;2022-09-12T13:04:54;100422.88;;;22.88;42.37
38038;BME280;23843;51.320;12.340;2022-09-12T13:07:25;100416.81;;;22.94;42.35
38038;BME280;23843;51.320;12.340;2022-09-12T13:09:52;100409.38;;;22.96;40.72
38038;BME280;23843;51.320;12.340;2022-09-12T13:12:22;100418.03;;;22.65;41.41
38038;BME280;23843;51.320;12.340;2022-09-12T13:14:53;100416.09;;;22.58;41.90
38038;BME280;23843;51.320;12.340;2022-09-12T13:17:23;100405.16;;;22.59;42.59
38038;BME280;23843;51.320;12.340;2022-09-12T13:19:51;100409.97;;;22.74;42.80
38038;BME280;23843;51.320;12.340;2022-09-12T13:22:20;100400.66;;;22.68;41.16
38038;BME280;23843;51.320;12.340;2022-09-12T13:24:47;100401.50;;;22.69;41.98
38038;BME280;23843;51.320;12.340;2022-09-12T13:27:19;100397.97;;;22.68;39.54
38038;BME280;23843;51.320;12.340;2022-09-12T13:29:45;100386.69;;;22.47;39.16
38038;BME280;23843;51.320;12.340;2022-09-12T13:32:10;100391.53;;;22.43;40.89
38038;BME280;23843;51.320;12.340;2022-09-12T13:34:45;100387.84;;;22.44;40.67
38038;BME280;23843;51.320;12.340;2022-09-12T13:37:37;100388.59;;;22.54;40.83
38038;BME280;23843;51.320;12.340;2022-09-12T13:40:28;100386.69;;;22.73;39.86
38038;BME280;23843;51.320;12.340;2022-09-12T13:43:12;100382.50;;;22.86;41.08
38038;BME280;23843;51.320;12.340;2022-09-12T13:45:38;100378.97;;;22.94;41.05
38038;BME280;23843;51.320;12.340;2022-09-12T13:48:06;100369.59;;;22.98;40.21
38038;BME280;23843;51.320;12.340;2022-09-12T13:50:38;100378.28;;;22.84;40.59
38038;BME280;23843;51.320;12.340;2022-09-12T13:53:11;100373.34;;;22.79;39.91
38038;BME280;23843;51.320;12.340;2022-09-12T13:55:39;100370.47;;;22.73;40.01
38038;BME280;23843;51.320;12.340;2022-09-12T13:58:16;100369.09;;;22.69;39.55
38038;BME280;23843;51.320;12.340;2022-09-12T14:00:43;100376.03;;;22.71;40.54
38038;BME280;23843;51.320;12.340;2022-09-12T14:03:24;100373.72;;;22.84;40.94
38038;BME280;23843;51.320;12.340;2022-09-12T14:05:54;100363.66;;;22.95;41.15
38038;BME280;23843;51.320;12.340;2022-09-12T14:08:21;100369.72;;;22.97;40.59
38038;BME280;23843;51.320;12.340;2022-09-12T14:10:48;100364.53;;;23.03;40.79
38038;BME280;23843;51.320;12.340;2022-09-12T14:13:18;100364.56;;;23.12;40.59
38038;BME280;23843;51.320;12.340;2022-09-12T14:15:46;100364.56;;;23.12;40.24
38038;BME280;23843;51.320;12.340;2022-09-12T14:18:22;100356.44;;;23.03;39.82
38038;BME280;23843;51.320;12.340;2022-09-12T14:20:48;100358.13;;;23.04;40.49
38038;BME280;23843;51.320;12.340;2022-09-12T14:23:18;100355.13;;;22.81;39.69
38038;BME280;23843;51.320;12.340;2022-09-12T14:25:45;100345.31;;;22.72;40.75
38038;BME280;23843;51.320;12.340;2022-09-12T14:28:12;100345.50;;;22.79;40.75
38038;BME280;23843;51.320;12.340;2022-09-12T14:30:40;100343.84;;;22.86;40.57
38038;BME280;23843;51.320;12.340;2022-09-12T14:33:17;100340.66;;;22.91;40.34
38038;BME280;23843;51.320;12.340;2022-09-12T14:35:45;100340.16;;;22.95;40.54
38038;BME280;23843;51.320;12.340;2022-09-12T14:38:19;100337.00;;;23.00;40.77
38038;BME280;23843;51.320;12.340;2022-09-12T14:40:48;100340.91;;;23.05;41.24
38038;BME280;23843;51.320;12.340;2022-09-12T14:43:20;100330.78;;;23.07;40.78
38038;BME280;23843;51.320;12.340;2022-09-12T14:45:54;100335.66;;;23.04;40.59
38038;BME280;23843;51.320;12.340;2022-09-12T14:48:20;100334.31;;;23.00;41.06
38038;BME280;23843;51.320;12.340;2022-09-12T14:50:48;100334.56;;;22.89;40.62
38038;BME280;23843;51.320;12.340;2022-09-12T14:53:22;100330.81;;;22.81;41.23
38038;BME280;23843;51.320;12.340;2022-09-12T14:55:50;100328.94;;;22.74;41.19
38038;BME280;23843;51.320;12.340;2022-09-12T14:58:22;100328.84;;;22.49;41.40
38038;BME280;23843;51.320;12.340;2022-09-12T15:01:23;100330.84;;;22.47;42.26
38038;BME280;23843;51.320;12.340;2022-09-12T15:03:51;100333.19;;;22.42;42.35
38038;BME280;23843;51.320;12.340;2022-09-12T15:06:20;100327.41;;;22.37;42.57
38038;BME280;23843;51.320;12.340;2022-09-12T15:08:46;100318.50;;;22.18;42.62
38038;BME280;23843;51.320;12.340;2022-09-12T15:11:11;100322.47;;;22.24;43.06
38038;BME280;23843;51.320;12.340;2022-09-12T15:13:39;100326.00;;;22.25;42.75
38038;BME280;23843;51.320;12.340;2022-09-12T15:16:08;100323.19;;;22.16;42.83
38038;BME280;23843;51.320;12.340;2022-09-12T15:18:35;100315.78;;;22.18;43.08
38038;BME280;23843;51.320;12.340;2022-09-12T15:21:02;100319.59;;;22.26;43.16
38038;BME280;23843;51.320;12.340;2022-09-12T15:23:31;100305.75;;;22.29;42.73
38038;BME280;23843;51.320;12.340;2022-09-12T15:25:58;100321.28;;;22.27;43.22
38038;BME280;23843;51.320;12.340;2022-09-12T15:28:24;100322.13;;;22.09;43.11
38038;BME280;23843;51.320;12.340;2022-09-12T15:30:51;100326.56;;;22.10;43.32
38038;BME280;23843;51.320;12.340;2022-09-12T15:33:18;100317.44;;;22.11;43.46
38038;BME280;23843;51.320;12.340;2022-09-12T15:35:45;100321.66;;;22.14;43.57
38038;BME280;23843;51.320;12.340;2022-09-12T15:38:10;100320.47;;;22.08;43.23
38038;BME280;23843;51.320;12.340;2022-09-12T15:40:36;100316.09;;;22.07;43.39
38038;BME280;23843;51.320;12.340;2022-09-12T15:43:01;100313.84;;;22.02;43.63
38038;BME280;23843;51.320;12.340;2022-09-12T15:45:29;100318.88;;;21.97;43.19
38038;BME280;23843;51.320;12.340;2022-09-12T15:47:55;100319.97;;;21.87;43.53
38038;BME280;23843;51.320;12.340;2022-09-12T15:50:21;100316.75;;;21.83;43.64
38038;BME280;23843;51.320;12.340;2022-09-12T15:52:48;100307.81;;;21.83;43.97
38038;BME280;23843;51.320;12.340;2022-09-12T15:55:15;100312.66;;;21.79;43.88
38038;BME280;23843;51.320;12.340;2022-09-12T15:57:41;100310.09;;;21.77;43.81
38038;BME280;23843;51.320;12.340;2022-09-12T16:00:07;100313.81;;;21.76;43.69
38038;BME280;23843;51.320;12.340;2022-09-12T16:02:33;100307.22;;;21.71;43.65
38038;BME280;23843;51.320;12.340;2022-09-12T16:04:58;100310.19;;;21.68;44.07
38038;BME280;23843;51.320;12.340;2022-09-12T16:07:24;100311.06;;;21.68;44.20
38038;BME280;23843;51.320;12.340;2022-09-12T16:09:50;100303.97;;;21.67;44.07
38038;BME280;23843;51.320;12.340;2022-09-12T16:12:16;100303.44;;;21.64;44.23
38038;BME280;23843;51.320;12.340;2022-09-12T16:14:41;100296.34;;;21.63;44.33
38038;BME280;23843;51.320;12.340;2022-09-12T16:17:07;100289.41;;;21.60;44.40
38038;BME280;23843;51.320;12.340;2022-09-12T16:19:32;100292.44;;;21.57;44.88
38038;BME280;23843;51.320;12.340;2022-09-12T16:21:58;100284.34;;;21.57;44.58
38038;BME280;23843;51.320;12.340;2022-09-12T16:24:23;100287.38;;;21.54;44.67
38038;BME280;23843;51.320;12.340;2022-09-12T16:26:50;100287.38;;;21.54;45.00
38038;BME280;23843;51.320;12.340;2022-09-12T16:29:15;100296.06;;;21.48;44.76
38038;BME280;23843;51.320;12.340;2022-09-12T16:31:41;100286.28;;;21.47;44.73
38038;BME280;23843;51.320;12.340;2022-09-12T16:34:06;100277.50;;;21.45;44.62
38038;BME280;23843;51.320;12.340;2022-09-12T16:36:31;100281.34;;;21.42;44.86
38038;BME280;23843;51.320;12.340;2022-09-12T16:38:57;100279.09;;;21.37;45.02
38038;BME280;23843;51.320;12.340;2022-09-12T16:41:23;100273.84;;;21.36;45.05
38038;BME280;23843;51.320;12.340;2022-09-12T16:43:51;100269.09;;;21.30;44.93
38038;BME280;23843;51.320;12.340;2022-09-12T16:46:17;100275.41;;;21.21;45.42
38038;BME280;23843;51.320;12.340;2022-09-12T16:48:44;100267.78;;;21.16;45.61
38038;BME280;23843;51.320;12.340;2022-09-12T16:51:09;100253.22;;;21.09;45.99
38038;BME280;23843;51.320;12.340;2022-09-12T16:53:37;100256.38;;;21.04;46.00
38038;BME280;23843;51.320;12.340;2022-09-12T16:56:03;100251.88;;;21.05;46.17
38038;BME280;23843;51.320;12.340;2022-09-12T16:58:31;100252.31;;;21.00;46.22
38038;BME280;23843;51.320;12.340;2022-09-12T17:01:01;100258.16;;;20.95;46.10
38038;BME280;23843;51.320;12.340;2022-09-12T17:03:27;100253.75;;;20.94;45.90
38038;BME280;23843;51.320;12.340;2022-09-12T17:05:57;100249.59;;;20.82;46.58
38038;BME280;23843;51.320;12.340;2022-09-12T17:08:22;100245.81;;;20.75;46.63
38038;BME280;23843;51.320;12.340;2022-09-12T17:10:48;100250.78;;;20.70;46.57
38038;BME280;23843;51.320;12.340;2022-09-12T17:13:13;100245.03;;;20.65;46.87
38038;BME280;23843;51.320;12.340;2022-09-12T17:15:38;100239.25;;;20.60;46.68
38038;BME280;23843;51.320;12.340;2022-09-12T17:18:05;100246.91;;;20.55;46.93
38038;BME280;23843;51.320;12.340;2022-09-12T17:20:34;100245.34;;;20.52;46.67
38038;BME280;23843;51.320;12.340;2022-09-12T17:22:59;100236.75;;;20.48;47.16
38038;BME280;23843;51.320;12.340;2022-09-12T17:25:24;100242.41;;;20.45;47.13
38038;BME280;23843;51.320;12.340;2022-09-12T17:27:50;100248.09;;;20.42;47.49
38038;BME280;23843;51.320;12.340;2022-09-12T17:30:15;100242.47;;;20.36;47.67
38038;BME280;23843;51.320;12.340;2022-09-12T17:32:41;100245.59;;;20.31;47.65